Brook Park, Ohio
Current Conditions -  °F | °C
As of 5:51 PM on Thursday 23 Oct 2014 (Local Time) from KCLE Reporting Station
Few Clouds Few Clouds  
Wind Chill: 53°   Ceiling: Unl
Heat Index: 53°   Visibility: 10mi
Dew Point: 41°   Wind: 7mph
Humidity: 64%   Direction: 280°W
Pressure: 30.16"   Gusts: NA
Location:  41.4°N, 81.82°W
Report Text: KCLE 232151Z 28006KT 10SM FEW025 FEW250 12/05 A3016 RMK AO2 SLP215 T01170050
Loading
Personal Weather Stations






























Interactive Weather Map
Tropical Storm Tracking
New forecast layout! Learn more

10-Day Weather Forecast

Advertisements
Track Severe Weather on mobile